createdAt,value
2018-09-19T00:02:31.862Z,1.83
2018-09-19T00:07:34.406Z,2.20
2018-09-19T00:12:36.943Z,2.00
2018-09-19T00:17:39.571Z,2.60
2018-09-19T00:22:42.083Z,2.87
2018-09-19T00:27:44.754Z,2.40
2018-09-19T00:32:47.581Z,2.30
2018-09-19T00:37:50.131Z,2.30
2018-09-19T00:42:52.673Z,2.93
2018-09-19T00:47:55.200Z,2.40
2018-09-19T00:52:57.844Z,2.50
2018-09-19T00:58:00.446Z,2.83
2018-09-19T01:03:02.993Z,2.90
2018-09-19T01:08:05.785Z,2.93
2018-09-19T01:13:08.376Z,3.13
2018-09-19T01:18:10.918Z,2.97
2018-09-19T01:23:13.471Z,3.40
2018-09-19T01:28:16.013Z,3.50
2018-09-19T01:33:18.524Z,3.23
2018-09-19T01:38:21.072Z,3.60
2018-09-19T01:43:23.626Z,3.57
2018-09-19T01:48:26.670Z,3.93
2018-09-19T01:53:29.190Z,3.60
2018-09-19T01:58:31.746Z,3.30
2018-09-19T02:03:34.313Z,3.77
2018-09-19T02:08:36.880Z,3.83
2018-09-19T02:13:39.420Z,4.00
2018-09-19T02:18:42.039Z,3.90
2018-09-19T02:23:44.648Z,4.00
2018-09-19T02:28:47.304Z,3.93
2018-09-19T02:33:49.897Z,4.00
2018-09-19T02:38:54.170Z,3.90
2018-09-19T02:43:56.702Z,4.37
2018-09-19T02:48:59.447Z,4.10
2018-09-19T02:54:01.976Z,4.03
2018-09-19T02:59:04.531Z,3.97
2018-09-19T03:04:07.054Z,3.90
2018-09-19T03:09:09.577Z,3.77
2018-09-19T03:14:12.141Z,3.70
2018-09-19T03:19:14.656Z,4.00
2018-09-19T03:24:17.185Z,4.07
2018-09-19T03:29:19.756Z,3.63
2018-09-19T03:34:22.263Z,3.23
2018-09-19T03:39:24.802Z,3.47
2018-09-19T03:44:27.358Z,3.67
2018-09-19T03:49:29.917Z,3.73
2018-09-19T03:54:32.512Z,3.43
2018-09-19T03:59:35.011Z,3.63
2018-09-19T04:04:37.793Z,4.23
2018-09-19T04:09:40.317Z,3.97
2018-09-19T04:14:42.886Z,4.30
2018-09-19T04:19:45.383Z,3.87
2018-09-19T04:24:47.998Z,3.90
2018-09-19T04:29:50.539Z,4.90
2018-09-19T04:34:53.175Z,4.73
2018-09-19T04:39:55.936Z,3.57
2018-09-19T04:44:58.582Z,3.90
2018-09-19T04:50:01.983Z,4.07
2018-09-19T04:55:05.571Z,4.33
2018-09-19T05:00:08.111Z,5.50
2018-09-19T05:05:10.680Z,5.10
2018-09-19T05:10:13.312Z,4.67
2018-09-19T05:15:15.842Z,4.97
2018-09-19T05:20:18.367Z,5.00
2018-09-19T05:25:20.902Z,4.63
2018-09-19T05:30:23.452Z,4.50
2018-09-19T05:35:25.986Z,4.87
2018-09-19T05:40:28.695Z,4.93
2018-09-19T05:45:31.230Z,5.20
2018-09-19T05:50:34.049Z,4.73
2018-09-19T05:55:36.635Z,4.47
2018-09-19T06:00:39.227Z,4.73
2018-09-19T06:05:41.857Z,4.80
2018-09-19T06:10:44.401Z,4.27
2018-09-19T06:15:46.931Z,4.20
2018-09-19T06:20:49.796Z,4.17
2018-09-19T06:25:52.359Z,4.23
2018-09-19T06:30:55.033Z,4.40
2018-09-19T06:35:57.601Z,3.83
2018-09-19T06:41:00.323Z,3.20
2018-09-19T06:46:02.856Z,3.97
2018-09-19T06:51:05.473Z,4.30
2018-09-19T06:56:08.166Z,3.27
2018-09-19T07:01:10.718Z,3.37
2018-09-19T07:06:13.419Z,3.27
2018-09-19T07:11:16.110Z,3.60
2018-09-19T07:16:18.641Z,2.87
2018-09-19T07:21:21.304Z,4.23
2018-09-19T07:26:23.912Z,4.50
2018-09-19T07:31:26.458Z,6.47
2018-09-19T07:36:28.985Z,6.23
2018-09-19T07:41:31.640Z,5.97
2018-09-19T07:46:34.243Z,4.70
2018-09-19T07:51:36.777Z,4.47
2018-09-19T07:56:39.313Z,4.83
2018-09-19T08:01:41.861Z,4.10
2018-09-19T08:06:44.392Z,4.10
2018-09-19T08:11:46.945Z,4.30
2018-09-19T08:16:49.632Z,4.73
2018-09-19T08:21:52.231Z,4.13
2018-09-19T08:26:55.308Z,4.50
2018-09-19T08:31:57.849Z,4.40
2018-09-19T08:37:00.748Z,4.23
2018-09-19T08:42:03.433Z,4.03
2018-09-19T08:47:06.139Z,4.03
2018-09-19T08:52:09.197Z,4.00
2018-09-19T08:57:12.532Z,4.93
2018-09-19T09:02:15.104Z,4.80
2018-09-19T09:07:18.437Z,4.93
2018-09-19T09:12:21.162Z,5.13
2018-09-19T09:17:23.618Z,4.40
2018-09-19T09:22:26.160Z,4.10
2018-09-19T09:27:29.029Z,3.93
2018-09-19T09:32:31.484Z,3.70
2018-09-19T09:37:34.340Z,4.30
2018-09-19T09:42:36.884Z,2.90
2018-09-19T09:47:39.424Z,2.92
2018-09-19T09:52:42.112Z,2.62
2018-09-19T09:57:45.762Z,2.10
2018-09-19T10:02:48.396Z,2.30
2018-09-19T10:07:50.992Z,1.98
2018-09-19T10:12:53.815Z,2.08
2018-09-19T10:17:56.427Z,2.65
2018-09-19T10:22:58.954Z,2.25
2018-09-19T10:28:01.507Z,2.40
2018-09-19T10:33:04.048Z,2.60
2018-09-19T10:38:06.664Z,2.65
2018-09-19T10:43:09.235Z,2.27
2018-09-19T10:48:11.987Z,2.47
2018-09-19T10:53:14.516Z,2.65
2018-09-19T10:58:17.078Z,2.22
2018-09-19T11:03:19.720Z,2.15
2018-09-19T11:08:22.366Z,2.20
2018-09-19T11:13:24.920Z,2.67
2018-09-19T11:18:27.521Z,2.60
2018-09-19T11:23:30.151Z,2.58
2018-09-19T11:28:32.726Z,2.67
2018-09-19T11:33:35.334Z,2.87
2018-09-19T11:38:37.888Z,2.20
2018-09-19T11:43:40.523Z,2.50
2018-09-19T11:48:43.048Z,2.30
2018-09-19T11:53:45.599Z,2.70
2018-09-19T11:58:48.212Z,2.70
2018-09-19T12:03:50.761Z,3.02
2018-09-19T12:08:53.313Z,2.33
2018-09-19T12:13:55.969Z,2.40
2018-09-19T12:18:58.616Z,2.35
2018-09-19T12:24:01.213Z,2.35
2018-09-19T12:29:03.870Z,2.52
2018-09-19T12:34:06.551Z,2.47
2018-09-19T12:39:10.289Z,2.80
2018-09-19T12:44:12.886Z,2.45
2018-09-19T12:49:15.632Z,2.83
2018-09-19T12:54:18.228Z,2.45
2018-09-19T12:59:21.011Z,2.87
2018-09-19T13:04:23.574Z,2.55
2018-09-19T13:09:26.254Z,2.22
2018-09-19T13:14:28.868Z,2.37
2018-09-19T13:19:31.455Z,2.70
2018-09-19T13:24:34.729Z,2.50
2018-09-19T13:29:37.328Z,2.50
2018-09-19T13:34:39.916Z,2.58
2018-09-19T13:39:42.524Z,2.37
2018-09-19T13:44:45.427Z,2.47
2018-09-19T13:49:54.716Z,2.62
2018-09-19T13:54:57.377Z,2.67
2018-09-19T14:00:00.911Z,2.30
2018-09-19T14:05:03.658Z,2.90
2018-09-19T14:10:06.233Z,2.72
2018-09-19T14:15:08.832Z,2.77
2018-09-19T14:20:11.496Z,3.30
2018-09-19T14:25:14.143Z,2.87
2018-09-19T14:30:16.807Z,2.70
2018-09-19T14:35:19.602Z,3.03
2018-09-19T14:40:22.281Z,3.00
2018-09-19T14:45:24.878Z,3.07
2018-09-19T14:50:27.579Z,2.90
2018-09-19T14:55:30.466Z,3.20
2018-09-19T15:00:33.007Z,3.47
2018-09-19T15:05:35.522Z,3.10
2018-09-19T15:10:38.095Z,2.55
2018-09-19T15:15:40.804Z,2.60
2018-09-19T15:20:43.361Z,2.45
2018-09-19T15:25:46.083Z,3.17
2018-09-19T15:30:48.726Z,2.90
2018-09-19T15:35:51.270Z,3.05
2018-09-19T15:40:53.842Z,2.83
2018-09-19T15:45:56.393Z,3.05
2018-09-19T15:50:59.003Z,2.80
2018-09-19T15:56:02.121Z,2.50
2018-09-19T16:01:04.897Z,2.45
2018-09-19T16:06:07.501Z,2.80
2018-09-19T16:11:10.033Z,2.50
2018-09-19T16:16:13.426Z,2.75
2018-09-19T16:21:15.981Z,2.92
2018-09-19T16:26:18.597Z,2.90
2018-09-19T16:31:22.041Z,3.22
2018-09-19T16:36:25.117Z,3.08
2018-09-19T16:41:27.735Z,2.80
2018-09-19T16:46:30.428Z,2.90
2018-09-19T16:51:33.256Z,3.10
2018-09-19T16:56:35.784Z,3.40
2018-09-19T17:01:38.732Z,3.80
2018-09-19T17:06:41.333Z,4.47
2018-09-19T17:11:43.852Z,3.60
2018-09-19T17:16:46.404Z,3.70
2018-09-19T17:21:48.987Z,3.63
2018-09-19T17:26:51.685Z,4.07
2018-09-19T17:31:54.323Z,4.10
2018-09-19T17:36:56.926Z,3.67
2018-09-19T17:41:59.467Z,4.10
2018-09-19T17:47:02.088Z,4.17
2018-09-19T17:52:04.793Z,3.90
2018-09-19T17:57:08.043Z,4.10
2018-09-19T18:02:10.660Z,3.77
2018-09-19T18:07:13.217Z,4.30
2018-09-19T18:12:15.774Z,4.17
2018-09-19T18:17:18.338Z,4.17
2018-09-19T18:22:20.971Z,4.20
2018-09-19T18:27:23.960Z,3.90
2018-09-19T18:32:27.377Z,4.07
2018-09-19T18:37:29.976Z,3.60
2018-09-19T18:42:32.593Z,3.20
2018-09-19T18:47:35.205Z,4.17
2018-09-19T18:52:37.800Z,4.30
2018-09-19T18:57:40.375Z,3.97
2018-09-19T19:02:42.949Z,4.33
2018-09-19T19:07:45.612Z,4.27
2018-09-19T19:12:48.189Z,4.00
2018-09-19T19:17:50.848Z,4.43
2018-09-19T19:22:53.452Z,4.17
2018-09-19T19:27:56.023Z,4.60
2018-09-19T19:32:58.591Z,4.20
2018-09-19T19:38:01.168Z,4.87
2018-09-19T19:43:03.789Z,4.20
2018-09-19T19:48:06.374Z,4.20
2018-09-19T19:53:09.045Z,4.27
2018-09-19T19:58:11.627Z,4.10
2018-09-19T20:03:14.276Z,4.30
2018-09-19T20:08:16.821Z,4.10
2018-09-19T20:13:19.558Z,4.00
2018-09-19T20:18:22.366Z,4.50
2018-09-19T20:23:24.883Z,4.80
2018-09-19T20:28:27.411Z,4.10
2018-09-19T20:33:30.007Z,4.00
2018-09-19T20:38:32.497Z,4.23
2018-09-19T20:43:35.028Z,4.03
2018-09-19T20:48:37.668Z,4.77
2018-09-19T20:53:40.177Z,4.10
2018-09-19T20:58:42.754Z,4.67
2018-09-19T21:03:45.331Z,4.70
2018-09-19T21:08:47.848Z,4.97
2018-09-19T21:13:50.350Z,5.53
2018-09-19T21:18:52.965Z,4.70
2018-09-19T21:23:55.587Z,4.80
2018-09-19T21:28:58.160Z,4.80
2018-09-19T21:34:00.974Z,4.60
2018-09-19T21:39:05.591Z,4.67
2018-09-19T21:44:08.155Z,4.87
2018-09-19T21:49:10.699Z,4.47
2018-09-19T21:54:13.227Z,5.83
2018-09-19T21:59:15.871Z,5.37
2018-09-19T22:04:18.404Z,6.13
2018-09-19T22:09:21.012Z,5.23
2018-09-19T22:14:23.555Z,5.20
2018-09-19T22:19:26.088Z,4.67
2018-09-19T22:24:28.663Z,5.17
2018-09-19T22:29:31.204Z,5.30
2018-09-19T22:34:33.743Z,5.83
2018-09-19T22:39:36.303Z,5.63
2018-09-19T22:44:38.888Z,5.80
2018-09-19T22:49:41.453Z,5.60
2018-09-19T22:54:43.971Z,5.43
2018-09-19T22:59:47.200Z,5.90
2018-09-19T23:04:49.734Z,5.77
2018-09-19T23:09:52.255Z,6.00
2018-09-19T23:14:54.850Z,5.67
2018-09-19T23:19:57.406Z,6.17
2018-09-19T23:24:59.940Z,6.10
2018-09-19T23:30:02.524Z,5.80
2018-09-19T23:35:05.095Z,5.57
2018-09-19T23:40:07.685Z,6.80
2018-09-19T23:45:10.240Z,5.30
2018-09-19T23:50:12.766Z,6.80
2018-09-19T23:55:16.274Z,7.60
